ロメ の空港の天気 - METARとTAF

ロメ空港 ( DXXX / LFW ) - トーゴ ロメ
飛行場実況気象(Metar)
観測時間05/28 01:00 GMT (05/28 01:00 UTC)
風向・風速西 4m/s
視程10km以上
天気現象
全天の4割程度の雲 雲底高度 300m
気温28℃
湿度84%
気圧1013hPa
METARDXXX 280100Z 27007KT 240V300 9999 SCT010 28/25 Q1013 NOSIG
過去の天気等 Google飛行場航空写真 Wunderground天気予報

過去48時間のMETAR

飛行場予報(TAF)
発表時間: 5/27 23:00 GMT (5/27 23:00 UTC)
予報対象時間: 28日0時 GMT ~ 29日6時 GMT
風向・風速不定 2m/s
視程10km以上
少しの雲 雲底高度 370m
28日6時 GMT ~ 28日12時 GMT に一時的に
天気現象
全天の8割程度の雲 雲底高度 400m
少しの積乱雲 雲底高度 610m
28日11時 GMT ~ 28日13時 GMT に徐々に
風向・風速南南西 5m/s
TAF DXXX 272300Z 2800/2906 VRB03KT 9999 FEW012
TEMPO 2806/2812 TS BKN013 FEW020CB
PROB30 4000 TSRA
BECMG 2811/2813 20010KT